createdAt,value
2015-09-23T00:00:10.578Z,167
2015-09-23T00:00:28.969Z,173
2015-09-23T00:00:47.644Z,154
2015-09-23T00:01:06.472Z,153
2015-09-23T00:01:24.956Z,149
2015-09-23T00:01:43.425Z,147
2015-09-23T00:02:02.022Z,151
2015-09-23T00:02:20.647Z,146
2015-09-23T00:02:39.069Z,147
2015-09-23T00:02:57.555Z,147
2015-09-23T00:03:15.946Z,143
2015-09-23T00:03:34.352Z,142
2015-09-23T00:03:52.995Z,180
2015-09-23T00:04:11.699Z,179
2015-09-23T00:04:30.089Z,148
2015-09-23T00:04:48.480Z,143
2015-09-23T00:05:06.920Z,145
2015-09-23T00:05:25.420Z,144
2015-09-23T00:05:44.077Z,142
2015-09-23T00:06:02.595Z,142
2015-09-23T00:06:20.970Z,145
2015-09-23T00:06:39.455Z,145
2015-09-23T00:06:57.958Z,148
2015-09-23T00:07:16.567Z,146
2015-09-23T00:07:35.083Z,184
2015-09-23T00:07:53.663Z,171
2015-09-23T00:08:12.319Z,140
2015-09-23T00:08:30.678Z,145
2015-09-23T00:08:49.085Z,139
2015-09-23T00:09:07.556Z,137
2015-09-23T00:09:26.025Z,133
2015-09-23T00:09:44.650Z,136
2015-09-23T00:10:03.153Z,130
2015-09-23T00:10:21.669Z,129
2015-09-23T00:10:40.341Z,127
2015-09-23T00:10:58.921Z,131
2015-09-23T00:11:17.702Z,129
2015-09-23T00:11:36.280Z,137
2015-09-23T00:11:54.858Z,132
2015-09-23T00:12:13.502Z,131
2015-09-23T00:12:31.971Z,129
2015-09-23T00:12:50.471Z,132
2015-09-23T00:13:09.067Z,132
2015-09-23T00:13:27.708Z,130
2015-09-23T00:13:46.239Z,129
2015-09-23T00:14:04.804Z,129
2015-09-23T00:14:23.241Z,131
2015-09-23T00:14:41.819Z,130
2015-09-23T00:15:00.729Z,133
2015-09-23T00:15:19.088Z,130
2015-09-23T00:15:37.854Z,126
2015-09-23T00:15:56.525Z,123
2015-09-23T00:16:14.888Z,123
2015-09-23T00:16:33.278Z,127
2015-09-23T00:16:51.685Z,125
2015-09-23T00:17:10.063Z,122
2015-09-23T00:17:28.485Z,119
2015-09-23T00:17:46.922Z,117
2015-09-23T00:18:05.346Z,112
2015-09-23T00:18:23.815Z,119
2015-09-23T00:18:42.721Z,120
2015-09-23T00:19:01.112Z,115
2015-09-23T00:19:19.552Z,111
2015-09-23T00:19:38.021Z,118
2015-09-23T00:19:56.396Z,115
2015-09-23T00:20:14.836Z,116
2015-09-23T00:20:33.399Z,116
2015-09-23T00:20:51.758Z,121
2015-09-23T00:21:10.151Z,121
2015-09-23T00:21:28.854Z,116
2015-09-23T00:21:47.682Z,118
2015-09-23T00:22:06.498Z,116
2015-09-23T00:22:25.232Z,111
2015-09-23T00:22:43.732Z,113
2015-09-23T00:23:02.091Z,117
2015-09-23T00:23:20.641Z,116
2015-09-23T00:23:39.157Z,116
2015-09-23T00:23:57.563Z,120
2015-09-23T00:24:16.097Z,121
2015-09-23T00:24:34.535Z,119
2015-09-23T00:24:53.160Z,120
2015-09-23T00:25:11.694Z,122
2015-09-23T00:25:30.053Z,117
2015-09-23T00:25:48.741Z,118
2015-09-23T00:26:07.303Z,113
2015-09-23T00:26:25.947Z,117
2015-09-23T00:26:44.572Z,116
2015-09-23T00:27:03.088Z,130
2015-09-23T00:27:21.527Z,123
2015-09-23T00:27:39.887Z,124
2015-09-23T00:27:58.683Z,130
2015-09-23T00:28:17.045Z,129
2015-09-23T00:28:35.482Z,126
2015-09-23T00:28:54.107Z,126
2015-09-23T00:29:12.467Z,117
2015-09-23T00:29:31.048Z,120
2015-09-23T00:29:49.735Z,125
2015-09-23T00:30:08.204Z,122
2015-09-23T00:30:26.988Z,126
2015-09-23T00:30:45.363Z,127
2015-09-23T00:31:04.113Z,123
2015-09-23T00:31:22.726Z,123
2015-09-23T00:31:41.257Z,124
2015-09-23T00:31:59.898Z,126
2015-09-23T00:32:18.354Z,124
2015-09-23T00:32:36.869Z,124
2015-09-23T00:32:55.401Z,126
2015-09-23T00:33:13.760Z,125
2015-09-23T00:33:32.215Z,125
2015-09-23T00:33:50.965Z,122
2015-09-23T00:34:09.418Z,122
2015-09-23T00:34:28.062Z,123
2015-09-23T00:34:46.640Z,121
2015-09-23T00:35:05.077Z,122
2015-09-23T00:35:23.751Z,122
2015-09-23T00:35:42.564Z,122
2015-09-23T00:36:01.142Z,121
2015-09-23T00:36:19.615Z,127
2015-09-23T00:36:37.990Z,119
2015-09-23T00:36:56.427Z,117
2015-09-23T00:37:14.802Z,115
2015-09-23T00:37:33.429Z,116
2015-09-23T00:37:52.039Z,120
2015-09-23T00:38:10.507Z,116
2015-09-23T00:38:29.057Z,119
2015-09-23T00:38:47.604Z,124
2015-09-23T00:39:06.167Z,122
2015-09-23T00:39:24.763Z,121
2015-09-23T00:39:43.232Z,122
2015-09-23T00:40:01.607Z,121
2015-09-23T00:40:20.344Z,120
2015-09-23T00:40:38.798Z,119
2015-09-23T00:40:57.266Z,117
2015-09-23T00:41:15.735Z,119
2015-09-23T00:41:34.346Z,118
2015-09-23T00:41:52.815Z,122
2015-09-23T00:42:11.284Z,125
2015-09-23T00:42:29.786Z,118
2015-09-23T00:42:48.348Z,127
2015-09-23T00:43:06.989Z,117
2015-09-23T00:43:25.368Z,121
2015-09-23T00:43:43.743Z,121
2015-09-23T00:44:02.368Z,125
2015-09-23T00:44:20.790Z,124
2015-09-23T00:44:39.276Z,122
2015-09-23T00:44:58.026Z,121
2015-09-23T00:45:16.401Z,122
2015-09-23T00:45:34.998Z,121
2015-09-23T00:45:53.592Z,115
2015-09-23T00:46:11.857Z,107
2015-09-23T00:46:30.392Z,107
2015-09-23T00:46:48.767Z,105
2015-09-23T00:47:07.314Z,105
2015-09-23T00:47:25.753Z,101
2015-09-23T00:47:44.253Z,100
2015-09-23T00:48:02.644Z,99
2015-09-23T00:48:21.097Z,99
2015-09-23T00:48:39.490Z,113
2015-09-23T00:48:58.256Z,115
2015-09-23T00:49:16.990Z,119
2015-09-23T00:49:35.524Z,118
2015-09-23T00:49:53.899Z,112
2015-09-23T00:50:12.289Z,89
2015-09-23T00:50:30.840Z,106
2015-09-23T00:50:49.200Z,103
2015-09-23T00:51:07.653Z,101
2015-09-23T00:51:26.121Z,100
2015-09-23T00:51:44.498Z,102
2015-09-23T00:52:03.030Z,101
2015-09-23T00:52:21.498Z,106
2015-09-23T00:52:40.033Z,103
2015-09-23T00:52:58.548Z,106
2015-09-23T00:53:17.048Z,105
2015-09-23T00:53:35.458Z,101
2015-09-23T00:53:53.926Z,94
2015-09-23T00:54:12.317Z,97
2015-09-23T00:54:31.098Z,101
2015-09-23T00:54:49.756Z,100
2015-09-23T00:55:08.241Z,96
2015-09-23T00:55:26.819Z,120
2015-09-23T00:55:45.478Z,121
2015-09-23T00:56:04.088Z,118
2015-09-23T00:56:22.681Z,110
2015-09-23T00:56:41.387Z,107
2015-09-23T00:56:59.856Z,106
2015-09-23T00:57:18.262Z,112
2015-09-23T00:57:36.656Z,102
2015-09-23T00:57:55.250Z,100
2015-09-23T00:58:14.094Z,99
2015-09-23T00:58:32.531Z,104
2015-09-23T00:58:50.861Z,103
2015-09-23T00:59:09.299Z,113
2015-09-23T00:59:27.721Z,112
2015-09-23T00:59:46.161Z,105
2015-09-23T01:00:04.692Z,104
2015-09-23T01:00:23.052Z,117
2015-09-23T01:00:41.664Z,116
2015-09-23T01:01:00.258Z,111
2015-09-23T01:01:18.805Z,112
2015-09-23T01:01:37.213Z,109
2015-09-23T01:01:55.619Z,111
2015-09-23T01:02:14.025Z,113
2015-09-23T01:02:32.479Z,123
2015-09-23T01:02:50.903Z,128
2015-09-23T01:03:09.497Z,129
2015-09-23T01:03:27.903Z,123
2015-09-23T01:03:46.296Z,121
2015-09-23T01:04:04.655Z,130
2015-09-23T01:04:23.093Z,130
2015-09-23T01:04:41.597Z,131
2015-09-23T01:05:00.425Z,128
2015-09-23T01:05:19.066Z,125
2015-09-23T01:05:37.519Z,127
2015-09-23T01:05:55.990Z,117
2015-09-23T01:06:14.411Z,107
2015-09-23T01:06:32.833Z,111
2015-09-23T01:06:51.352Z,111
2015-09-23T01:07:10.039Z,111
2015-09-23T01:07:28.461Z,115
2015-09-23T01:07:47.042Z,111
2015-09-23T01:08:05.527Z,115
2015-09-23T01:08:24.089Z,117
2015-09-23T01:08:42.576Z,123
2015-09-23T01:09:00.982Z,116
2015-09-23T01:09:19.529Z,116
2015-09-23T01:09:37.919Z,115
2015-09-23T01:09:56.454Z,113
2015-09-23T01:10:15.047Z,114
2015-09-23T01:10:33.516Z,115
2015-09-23T01:10:51.988Z,112
2015-09-23T01:11:10.550Z,114
2015-09-23T01:11:29.191Z,111
2015-09-23T01:11:47.757Z,110
2015-09-23T01:12:06.272Z,111
2015-09-23T01:12:25.022Z,112
2015-09-23T01:12:43.665Z,114
2015-09-23T01:13:02.134Z,117
2015-09-23T01:13:21.024Z,103
2015-09-23T01:13:39.837Z,97
2015-09-23T01:13:58.277Z,106
2015-09-23T01:14:16.746Z,107
2015-09-23T01:14:35.340Z,109
2015-09-23T01:14:53.718Z,110
2015-09-23T01:15:12.296Z,109
2015-09-23T01:15:30.796Z,95
2015-09-23T01:15:49.252Z,104
2015-09-23T01:16:07.736Z,109
2015-09-23T01:16:26.111Z,102
2015-09-23T01:16:44.613Z,107
2015-09-23T01:17:03.395Z,105
2015-09-23T01:17:21.926Z,114
2015-09-23T01:17:40.566Z,105
2015-09-23T01:17:58.991Z,109
2015-09-23T01:18:17.460Z,111
2015-09-23T01:18:35.976Z,106
2015-09-23T01:18:54.385Z,106
2015-09-23T01:19:12.838Z,103
2015-09-23T01:19:31.447Z,101
2015-09-23T01:19:50.043Z,97
2015-09-23T01:20:07.840Z,95
2015-09-23T01:20:26.199Z,97
2015-09-23T01:20:44.699Z,90
2015-09-23T01:21:03.140Z,92
2015-09-23T01:21:21.562Z,87
2015-09-23T01:21:40.062Z,90
2015-09-23T01:21:58.518Z,86
2015-09-23T01:22:16.955Z,79
2015-09-23T01:22:35.502Z,79
2015-09-23T01:22:53.989Z,75
2015-09-23T01:23:12.286Z,90
2015-09-23T01:23:30.692Z,94
2015-09-23T01:23:49.101Z,98
2015-09-23T01:24:07.117Z,91
2015-09-23T01:24:25.695Z,87
2015-09-23T01:24:44.335Z,88
2015-09-23T01:25:02.698Z,77
2015-09-23T01:25:21.182Z,84
2015-09-23T01:25:39.604Z,88
2015-09-23T01:25:58.059Z,82
2015-09-23T01:26:16.481Z,93
2015-09-23T01:26:34.903Z,86
2015-09-23T01:26:53.422Z,86
2015-09-23T01:27:12.000Z,90
2015-09-23T01:27:30.500Z,92
2015-09-23T01:27:49.109Z,88
2015-09-23T01:28:07.596Z,92
2015-09-23T01:28:25.971Z,89
2015-09-23T01:28:44.409Z,85
2015-09-23T01:29:02.973Z,96
2015-09-23T01:29:21.520Z,92
2015-09-23T01:29:39.895Z,88
2015-09-23T01:29:58.476Z,98
2015-09-23T01:30:16.851Z,86
2015-09-23T01:30:35.414Z,93
2015-09-23T01:30:53.808Z,85
2015-09-23T01:31:12.495Z,88
2015-09-23T01:31:31.089Z,102
2015-09-23T01:31:49.526Z,109
2015-09-23T01:32:07.967Z,86
2015-09-23T01:32:26.357Z,112
2015-09-23T01:32:44.873Z,67
2015-09-23T01:33:03.329Z,120
2015-09-23T01:33:22.235Z,119
2015-09-23T01:33:40.626Z,115
2015-09-23T01:33:59.003Z,68
2015-09-23T01:34:17.534Z,113
2015-09-23T01:34:35.972Z,73
2015-09-23T01:34:54.394Z,66
2015-09-23T01:35:13.037Z,68
2015-09-23T01:35:31.678Z,83
2015-09-23T01:35:50.037Z,101
2015-09-23T01:36:08.680Z,98
2015-09-23T01:36:27.149Z,99
2015-09-23T01:36:45.836Z,71
2015-09-23T01:37:04.434Z,65
2015-09-23T01:37:22.809Z,74
2015-09-23T01:37:41.575Z,70
2015-09-23T01:37:59.952Z,67
2015-09-23T01:38:18.498Z,96
2015-09-23T01:38:37.217Z,71
2015-09-23T01:38:55.936Z,79
2015-09-23T01:39:14.314Z,79
2015-09-23T01:39:32.830Z,81
2015-09-23T01:39:51.189Z,75
2015-09-23T01:40:09.583Z,64
2015-09-23T01:40:28.051Z,77
2015-09-23T01:40:46.551Z,90
2015-09-23T01:41:04.928Z,65
2015-09-23T01:41:23.303Z,65
2015-09-23T01:41:41.866Z,67
2015-09-23T01:42:00.319Z,64
2015-09-23T01:42:18.681Z,64
2015-09-23T01:42:37.197Z,66
2015-09-23T01:42:55.650Z,66
2015-09-23T01:43:14.309Z,63
2015-09-23T01:43:32.903Z,65
2015-09-23T01:43:51.450Z,63
2015-09-23T01:44:10.014Z,67
2015-09-23T01:44:28.624Z,64
2015-09-23T01:44:47.264Z,67
2015-09-23T01:45:05.671Z,65
2015-09-23T01:45:24.034Z,64
2015-09-23T01:45:42.597Z,67
2015-09-23T01:46:01.018Z,68
2015-09-23T01:46:19.475Z,69
2015-09-23T01:46:37.881Z,68
2015-09-23T01:46:56.303Z,73
2015-09-23T01:47:14.992Z,69
2015-09-23T01:47:33.398Z,69
2015-09-23T01:47:52.070Z,71
2015-09-23T01:48:10.339Z,67
2015-09-23T01:48:28.792Z,68
2015-09-23T01:48:47.417Z,65
2015-09-23T01:49:05.995Z,68
2015-09-23T01:49:24.419Z,76
2015-09-23T01:49:43.075Z,72
2015-09-23T01:50:01.888Z,75
2015-09-23T01:50:20.563Z,75
2015-09-23T01:50:39.000Z,76
2015-09-23T01:50:57.360Z,74
2015-09-23T01:51:15.894Z,77
2015-09-23T01:51:34.581Z,76
2015-09-23T01:51:53.066Z,75
2015-09-23T01:52:11.488Z,76
2015-09-23T01:52:30.083Z,66
2015-09-23T01:52:48.536Z,76
2015-09-23T01:53:07.286Z,69
2015-09-23T01:53:25.727Z,61
2015-09-23T01:53:44.102Z,60
2015-09-23T01:54:02.727Z,68
2015-09-23T01:54:21.121Z,62
2015-09-23T01:54:39.589Z,63
2015-09-23T01:54:58.183Z,76
2015-09-23T01:55:16.717Z,64
2015-09-23T01:55:35.233Z,77
2015-09-23T01:55:53.858Z,75
2015-09-23T01:56:12.264Z,75
2015-09-23T01:56:31.080Z,71
2015-09-23T01:56:49.611Z,74
2015-09-23T01:57:08.095Z,73
2015-09-23T01:57:26.629Z,74
2015-09-23T01:57:45.160Z,73
2015-09-23T01:58:03.894Z,78
2015-09-23T01:58:22.663Z,67
2015-09-23T01:58:41.178Z,74
2015-09-23T01:58:59.616Z,73
2015-09-23T01:59:17.993Z,77
2015-09-23T01:59:36.509Z,74
2015-09-23T01:59:54.868Z,74
2015-09-23T02:00:13.399Z,74
2015-09-23T02:00:31.777Z,73
2015-09-23T02:00:50.168Z,75
2015-09-23T02:01:08.887Z,75
2015-09-23T02:01:27.405Z,74
2015-09-23T02:01:45.890Z,75
2015-09-23T02:02:04.249Z,76
2015-09-23T02:02:22.877Z,75
2015-09-23T02:02:41.252Z,76
2015-09-23T02:02:59.877Z,76
2015-09-23T02:03:18.286Z,75
2015-09-23T02:03:36.974Z,70
2015-09-23T02:03:55.380Z,61
2015-09-23T02:04:13.942Z,58
2015-09-23T02:04:32.304Z,57
2015-09-23T02:04:50.726Z,58
2015-09-23T02:05:09.132Z,57
2015-09-23T02:05:27.869Z,58
2015-09-23T02:05:46.338Z,57
2015-09-23T02:06:04.963Z,57
2015-09-23T02:06:23.356Z,57
2015-09-23T02:06:41.746Z,56
2015-09-23T02:07:00.246Z,60
2015-09-23T02:07:18.949Z,61
2015-09-23T02:07:37.624Z,64
2015-09-23T02:07:55.999Z,57
2015-09-23T02:08:14.781Z,58
2015-09-23T02:08:33.299Z,59
2015-09-23T02:08:51.846Z,60
2015-09-23T02:09:10.205Z,56
2015-09-23T02:09:28.708Z,56
2015-09-23T02:09:47.099Z,60
2015-09-23T02:10:05.490Z,56
2015-09-23T02:10:24.101Z,56
2015-09-23T02:10:42.617Z,57
2015-09-23T02:11:01.007Z,56
2015-09-23T02:11:19.367Z,56
2015-09-23T02:11:37.932Z,56
2015-09-23T02:11:56.338Z,57
2015-09-23T02:12:14.745Z,58
2015-09-23T02:12:33.560Z,56
2015-09-23T02:12:52.091Z,59
2015-09-23T02:13:11.107Z,56
2015-09-23T02:13:29.593Z,55
2015-09-23T02:13:48.484Z,56
2015-09-23T02:14:06.187Z,55
2015-09-23T02:14:24.718Z,58
2015-09-23T02:14:43.300Z,55
2015-09-23T02:15:02.050Z,57
2015-09-23T02:15:20.690Z,56
2015-09-23T02:15:39.132Z,57
2015-09-23T02:15:57.679Z,66
2015-09-23T02:16:16.382Z,83
2015-09-23T02:16:34.806Z,82
2015-09-23T02:16:53.477Z,78
2015-09-23T02:17:11.837Z,68
2015-09-23T02:17:30.212Z,82
2015-09-23T02:17:48.591Z,60
2015-09-23T02:18:07.169Z,65
2015-09-23T02:18:25.685Z,70
2015-09-23T02:18:44.108Z,75
2015-09-23T02:19:02.499Z,80
2015-09-23T02:19:21.187Z,68
2015-09-23T02:19:39.690Z,73
2015-09-23T02:19:58.174Z,66
2015-09-23T02:20:16.752Z,64
2015-09-23T02:20:35.130Z,72
2015-09-23T02:20:53.505Z,74
2015-09-23T02:21:11.911Z,69
2015-09-23T02:21:30.521Z,75
2015-09-23T02:21:48.976Z,59
2015-09-23T02:22:07.413Z,66
2015-09-23T02:22:25.960Z,84
2015-09-23T02:22:44.338Z,91
2015-09-23T02:23:02.963Z,88
2015-09-23T02:23:21.510Z,58
2015-09-23T02:23:39.872Z,91
2015-09-23T02:23:58.669Z,115
2015-09-23T02:24:17.076Z,68
2015-09-23T02:24:35.560Z,67
2015-09-23T02:24:54.047Z,66
2015-09-23T02:25:12.563Z,56
2015-09-23T02:25:31.063Z,79
2015-09-23T02:25:49.424Z,59
2015-09-23T02:26:07.893Z,56
2015-09-23T02:26:26.456Z,56
2015-09-23T02:26:44.818Z,63
2015-09-23T02:27:03.130Z,61
2015-09-23T02:27:21.537Z,69
2015-09-23T02:27:39.974Z,68
2015-09-23T02:27:58.587Z,57
2015-09-23T02:28:17.118Z,57
2015-09-23T02:28:35.649Z,62
2015-09-23T02:28:54.260Z,63
2015-09-23T02:29:12.917Z,66
2015-09-23T02:29:31.339Z,69
2015-09-23T02:29:50.030Z,68
2015-09-23T02:30:08.546Z,69
2015-09-23T02:30:26.999Z,76
2015-09-23T02:30:45.438Z,73
2015-09-23T02:31:03.798Z,72
2015-09-23T02:31:22.423Z,68
2015-09-23T02:31:40.891Z,67
2015-09-23T02:31:59.582Z,67
2015-09-23T02:32:17.973Z,71
2015-09-23T02:32:36.316Z,74
2015-09-23T02:32:54.756Z,70
2015-09-23T02:33:13.162Z,76
2015-09-23T02:33:31.568Z,65
2015-09-23T02:33:50.212Z,68
2015-09-23T02:34:08.634Z,64
2015-09-23T02:34:27.321Z,64
2015-09-23T02:34:45.837Z,61
2015-09-23T02:35:04.215Z,58
2015-09-23T02:35:22.777Z,60
2015-09-23T02:35:41.152Z,60
2015-09-23T02:35:59.561Z,57
2015-09-23T02:36:18.295Z,55
2015-09-23T02:36:36.826Z,55
2015-09-23T02:36:55.454Z,56
2015-09-23T02:37:13.829Z,56
2015-09-23T02:37:32.423Z,58
2015-09-23T02:37:51.064Z,55
2015-09-23T02:38:09.535Z,56
2015-09-23T02:38:27.942Z,55
2015-09-23T02:38:46.520Z,55
2015-09-23T02:39:04.992Z,60
2015-09-23T02:39:23.820Z,63
2015-09-23T02:39:42.413Z,57
2015-09-23T02:40:01.197Z,55
2015-09-23T02:40:19.572Z,55
2015-09-23T02:40:38.322Z,55
2015-09-23T02:40:56.810Z,55
2015-09-23T02:41:15.451Z,56
2015-09-23T02:41:33.888Z,55
2015-09-23T02:41:52.638Z,55
2015-09-23T02:42:11.250Z,56
2015-09-23T02:42:29.609Z,59
2015-09-23T02:42:47.968Z,55
2015-09-23T02:43:06.393Z,56
2015-09-23T02:43:24.862Z,56
2015-09-23T02:43:43.628Z,60
2015-09-23T02:44:01.989Z,66
2015-09-23T02:44:20.380Z,70
2015-09-23T02:44:38.786Z,64
2015-09-23T02:44:57.286Z,115
2015-09-23T02:45:15.695Z,69
2015-09-23T02:45:34.179Z,70
2015-09-23T02:45:52.804Z,65
2015-09-23T02:46:11.651Z,63
2015-09-23T02:46:30.042Z,58
2015-09-23T02:46:48.714Z,62
2015-09-23T02:47:07.200Z,69
2015-09-23T02:47:25.919Z,93
2015-09-23T02:47:44.513Z,77
2015-09-23T02:48:03.016Z,67
2015-09-23T02:48:21.437Z,114
2015-09-23T02:48:39.875Z,95
2015-09-23T02:48:58.250Z,105
2015-09-23T02:49:16.987Z,81
2015-09-23T02:49:35.534Z,102
2015-09-23T02:49:53.956Z,65
2015-09-23T02:50:12.834Z,55
2015-09-23T02:50:31.537Z,80
2015-09-23T02:50:50.053Z,78
2015-09-23T02:51:08.461Z,55
2015-09-23T02:51:26.899Z,57
2015-09-23T02:51:45.461Z,61
2015-09-23T02:52:04.090Z,70
2015-09-23T02:52:22.699Z,77
2015-09-23T02:52:40.637Z,79
2015-09-23T02:52:59.137Z,82
2015-09-23T02:53:17.530Z,87
2015-09-23T02:53:35.889Z,80
2015-09-23T02:53:54.498Z,79
2015-09-23T02:54:12.908Z,100
2015-09-23T02:54:31.548Z,104
2015-09-23T02:54:50.001Z,105
2015-09-23T02:55:08.442Z,114
2015-09-23T02:55:26.989Z,144
2015-09-23T02:55:45.520Z,131
2015-09-23T02:56:03.942Z,125
2015-09-23T02:56:22.319Z,144
2015-09-23T02:56:41.116Z,140
2015-09-23T02:56:59.491Z,138
2015-09-23T02:57:17.900Z,113
2015-09-23T02:57:36.431Z,112
2015-09-23T02:57:55.619Z,121
2015-09-23T02:58:14.027Z,126
2015-09-23T02:58:32.386Z,57
2015-09-23T02:58:50.824Z,81
2015-09-23T02:59:09.186Z,64
2015-09-23T02:59:27.717Z,74
2015-09-23T02:59:46.155Z,88
2015-09-23T03:00:04.717Z,102
2015-09-23T03:00:23.220Z,110
2015-09-23T03:00:41.595Z,108
2015-09-23T03:01:00.205Z,99
2015-09-23T03:01:18.755Z,152
2015-09-23T03:01:37.083Z,167
2015-09-23T03:01:55.645Z,164
2015-09-23T03:02:14.211Z,167
2015-09-23T03:02:32.617Z,167
2015-09-23T03:02:51.195Z,153
2015-09-23T03:03:09.570Z,142
2015-09-23T03:03:28.025Z,142
2015-09-23T03:03:46.447Z,144
2015-09-23T03:04:05.135Z,161
2015-09-23T03:04:23.794Z,162
2015-09-23T03:04:42.200Z,148
2015-09-23T03:05:00.560Z,154
2015-09-23T03:05:19.265Z,160
2015-09-23T03:05:37.921Z,153
2015-09-23T03:05:56.280Z,160
2015-09-23T03:06:14.830Z,142
2015-09-23T03:06:33.283Z,150
2015-09-23T03:06:51.861Z,153
2015-09-23T03:07:10.330Z,149
2015-09-23T03:07:28.943Z,151
2015-09-23T03:07:47.318Z,154
2015-09-23T03:08:05.739Z,149
2015-09-23T03:08:24.149Z,153
2015-09-23T03:08:42.524Z,129
2015-09-23T03:09:01.102Z,151
2015-09-23T03:09:19.588Z,144
2015-09-23T03:09:38.026Z,143
2015-09-23T03:09:56.588Z,126
2015-09-23T03:10:15.060Z,144
2015-09-23T03:10:33.451Z,148
2015-09-23T03:10:52.076Z,156
2015-09-23T03:11:10.732Z,145
2015-09-23T03:11:29.235Z,159
2015-09-23T03:11:47.594Z,143
2015-09-23T03:12:06.079Z,121
2015-09-23T03:12:24.534Z,142
2015-09-23T03:12:42.956Z,138
2015-09-23T03:13:01.331Z,123
2015-09-23T03:13:19.724Z,147
2015-09-23T03:13:38.193Z,161
2015-09-23T03:13:56.568Z,161
2015-09-23T03:14:14.946Z,164
2015-09-23T03:14:33.383Z,184
2015-09-23T03:14:51.774Z,178
2015-09-23T03:15:10.258Z,188
2015-09-23T03:15:28.918Z,177
2015-09-23T03:15:47.574Z,180
2015-09-23T03:16:06.199Z,191
2015-09-23T03:16:24.577Z,200
2015-09-23T03:16:42.936Z,173
2015-09-23T03:17:01.296Z,180
2015-09-23T03:17:19.688Z,189
2015-09-23T03:17:38.079Z,163
2015-09-23T03:17:56.579Z,123
2015-09-23T03:18:15.032Z,166
2015-09-23T03:18:33.426Z,135
2015-09-23T03:18:52.019Z,146
2015-09-23T03:19:10.410Z,117
2015-09-23T03:19:29.038Z,140
2015-09-23T03:19:47.710Z,147
2015-09-23T03:20:06.116Z,171
2015-09-23T03:20:24.728Z,174
2015-09-23T03:20:43.103Z,179
2015-09-23T03:21:01.728Z,186
2015-09-23T03:21:20.293Z,180
2015-09-23T03:21:38.746Z,167
2015-09-23T03:21:57.449Z,179
2015-09-23T03:22:16.012Z,186
2015-09-23T03:22:34.437Z,154
2015-09-23T03:22:53.312Z,160
2015-09-23T03:23:12.077Z,216
2015-09-23T03:23:30.439Z,186
2015-09-23T03:23:49.095Z,181
2015-09-23T03:24:07.657Z,150
2015-09-23T03:24:26.270Z,170
2015-09-23T03:24:44.801Z,160
2015-09-23T03:25:03.395Z,160
2015-09-23T03:25:21.757Z,169
2015-09-23T03:25:40.538Z,161
2015-09-23T03:25:58.945Z,167
2015-09-23T03:26:17.304Z,158
2015-09-23T03:26:35.728Z,158
2015-09-23T03:26:54.119Z,156
2015-09-23T03:27:12.603Z,171
2015-09-23T03:27:31.012Z,160
2015-09-23T03:27:49.606Z,145
2015-09-23T03:28:08.247Z,164
2015-09-23T03:28:26.703Z,164
2015-09-23T03:28:45.156Z,157
2015-09-23T03:29:03.640Z,163
2015-09-23T03:29:22.000Z,161
2015-09-23T03:29:40.581Z,170
2015-09-23T03:29:58.940Z,178
2015-09-23T03:30:17.315Z,179
2015-09-23T03:30:35.724Z,179
2015-09-23T03:30:54.287Z,182
2015-09-23T03:31:12.834Z,187
2015-09-23T03:31:31.242Z,187
2015-09-23T03:31:49.836Z,176
2015-09-23T03:32:08.195Z,174
2015-09-23T03:32:26.729Z,180
2015-09-23T03:32:45.339Z,180
2015-09-23T03:33:03.761Z,176
2015-09-23T03:33:22.261Z,180
2015-09-23T03:33:40.779Z,161
2015-09-23T03:33:59.185Z,170
2015-09-23T03:34:17.576Z,177
2015-09-23T03:34:35.969Z,172
2015-09-23T03:34:54.437Z,177
2015-09-23T03:35:12.922Z,167
2015-09-23T03:35:31.550Z,169
2015-09-23T03:35:50.347Z,178
2015-09-23T03:36:08.862Z,190
2015-09-23T03:36:27.300Z,188
2015-09-23T03:36:46.037Z,160
2015-09-23T03:37:04.475Z,170
2015-09-23T03:37:23.162Z,119
2015-09-23T03:37:41.539Z,145
2015-09-23T03:38:00.180Z,138
2015-09-23T03:38:18.742Z,152
2015-09-23T03:38:37.323Z,152
2015-09-23T03:38:55.683Z,150
2015-09-23T03:39:14.105Z,160
2015-09-23T03:39:32.498Z,153
2015-09-23T03:39:51.061Z,157
2015-09-23T03:40:09.436Z,153
2015-09-23T03:40:27.905Z,146
2015-09-23T03:40:46.314Z,165
2015-09-23T03:41:04.861Z,148
2015-09-23T03:41:23.314Z,123
2015-09-23T03:41:42.223Z,55
2015-09-23T03:42:00.645Z,92
2015-09-23T03:42:19.145Z,99
2015-09-23T03:42:37.741Z,110
2015-09-23T03:42:56.100Z,112
2015-09-23T03:43:14.491Z,157
2015-09-23T03:43:33.272Z,156
2015-09-23T03:43:51.650Z,163
2015-09-23T03:44:10.212Z,147
2015-09-23T03:44:28.884Z,154
2015-09-23T03:44:47.512Z,151
2015-09-23T03:45:06.262Z,156
2015-09-23T03:45:24.794Z,159
2015-09-23T03:45:43.296Z,164
2015-09-23T03:46:01.842Z,172
2015-09-23T03:46:20.217Z,78
2015-09-23T03:46:38.658Z,167
2015-09-23T03:46:57.642Z,168
2015-09-23T03:47:16.189Z,170
2015-09-23T03:47:34.845Z,179
2015-09-23T03:47:53.348Z,179
2015-09-23T03:48:11.223Z,170
2015-09-23T03:48:29.692Z,172
2015-09-23T03:48:48.226Z,177
2015-09-23T03:49:06.773Z,150
2015-09-23T03:49:25.336Z,169
2015-09-23T03:49:43.932Z,169
2015-09-23T03:50:02.572Z,155
2015-09-23T03:50:21.119Z,159
2015-09-23T03:50:39.588Z,172
2015-09-23T03:50:58.185Z,180
2015-09-23T03:51:16.825Z,189
2015-09-23T03:51:35.263Z,190
2015-09-23T03:51:53.797Z,187
2015-09-23T03:52:12.156Z,188
2015-09-23T03:52:30.906Z,194
2015-09-23T03:52:49.283Z,195
2015-09-23T03:53:07.658Z,199
2015-09-23T03:53:26.018Z,177
2015-09-23T03:53:44.549Z,162
2015-09-23T03:54:02.927Z,161
2015-09-23T03:54:21.474Z,169
2015-09-23T03:54:39.849Z,139
2015-09-23T03:54:58.102Z,143
2015-09-23T03:55:16.617Z,161
2015-09-23T03:55:35.274Z,164
2015-09-23T03:55:53.745Z,151
2015-09-23T03:56:12.292Z,140
2015-09-23T03:56:30.839Z,165
2015-09-23T03:56:49.202Z,182
2015-09-23T03:57:07.780Z,194
2015-09-23T03:57:26.295Z,200
2015-09-23T03:57:44.873Z,201
2015-09-23T03:58:03.313Z,196
2015-09-23T03:58:21.735Z,198
2015-09-23T03:58:40.391Z,198
2015-09-23T03:58:58.863Z,198
2015-09-23T03:59:17.785Z,195
2015-09-23T03:59:36.160Z,149
2015-09-23T03:59:54.788Z,131
2015-09-23T04:00:13.303Z,164
2015-09-23T04:00:31.710Z,162
2015-09-23T04:00:50.288Z,173
2015-09-23T04:01:08.658Z,171
2015-09-23T04:01:27.064Z,167
2015-09-23T04:01:45.564Z,173
2015-09-23T04:02:03.839Z,154
2015-09-23T04:02:22.339Z,183
2015-09-23T04:02:40.933Z,208
2015-09-23T04:02:59.426Z,206
2015-09-23T04:03:17.817Z,165
2015-09-23T04:03:36.567Z,154
2015-09-23T04:03:55.107Z,174
2015-09-23T04:04:13.654Z,159
2015-09-23T04:04:32.061Z,136
2015-09-23T04:04:50.623Z,154
2015-09-23T04:05:09.305Z,143
2015-09-23T04:05:28.070Z,153
2015-09-23T04:05:46.601Z,158
2015-09-23T04:06:04.991Z,176
2015-09-23T04:06:23.741Z,176
2015-09-23T04:06:42.116Z,177
2015-09-23T04:07:00.568Z,174
2015-09-23T04:07:18.943Z,174
2015-09-23T04:07:37.428Z,160
2015-09-23T04:07:55.818Z,187
2015-09-23T04:08:14.178Z,187
2015-09-23T04:08:32.553Z,185
2015-09-23T04:08:51.084Z,181
2015-09-23T04:09:09.631Z,180
2015-09-23T04:09:28.115Z,189
2015-09-23T04:09:46.490Z,180
2015-09-23T04:10:04.911Z,157
2015-09-23T04:10:23.270Z,137
2015-09-23T04:10:41.817Z,149
2015-09-23T04:11:00.473Z,182
2015-09-23T04:11:19.147Z,180
2015-09-23T04:11:37.554Z,185
2015-09-23T04:11:55.944Z,172
2015-09-23T04:12:14.556Z,149
2015-09-23T04:12:33.056Z,165
2015-09-23T04:12:51.556Z,167
2015-09-23T04:13:10.041Z,132
2015-09-23T04:13:28.572Z,145
2015-09-23T04:13:47.025Z,157
2015-09-23T04:14:05.496Z,145
2015-09-23T04:14:23.949Z,148
2015-09-23T04:14:42.387Z,144
2015-09-23T04:15:00.934Z,168
2015-09-23T04:15:19.606Z,153
2015-09-23T04:15:38.044Z,163
2015-09-23T04:15:56.528Z,132
2015-09-23T04:16:14.968Z,131
2015-09-23T04:16:33.562Z,125
2015-09-23T04:16:52.093Z,164
2015-09-23T04:17:10.486Z,169
2015-09-23T04:17:29.174Z,179
2015-09-23T04:17:47.580Z,95
2015-09-23T04:18:06.049Z,172